createdAt,value
2022-11-06T00:01:14.937Z,81.05
2022-11-06T00:03:41.969Z,79.76
2022-11-06T00:06:31.003Z,79.78
2022-11-06T00:08:59.995Z,81.21
2022-11-06T00:11:26.982Z,81.54
2022-11-06T00:13:54.163Z,81.78
2022-11-06T00:16:21.335Z,81.91
2022-11-06T00:18:48.736Z,82.35
2022-11-06T00:21:27.072Z,82.37
2022-11-06T00:23:54.827Z,82.12
2022-11-06T00:26:24.941Z,82.33
2022-11-06T00:28:52.163Z,82.01
2022-11-06T00:31:21.270Z,83.21
2022-11-06T00:33:48.235Z,81.76
2022-11-06T00:36:18.798Z,80.60
2022-11-06T00:38:45.939Z,80.22
2022-11-06T00:41:14.802Z,79.94
2022-11-06T00:43:42.177Z,80.30
2022-11-06T00:46:12.758Z,80.49
2022-11-06T00:48:40.709Z,80.20
2022-11-06T00:51:14.544Z,80.83
2022-11-06T00:53:41.837Z,81.31
2022-11-06T00:56:11.656Z,81.40
2022-11-06T00:58:39.053Z,81.60
2022-11-06T01:01:28.055Z,81.51
2022-11-06T01:03:59.941Z,81.47
2022-11-06T01:06:29.673Z,80.79
2022-11-06T01:08:57.096Z,80.81
2022-11-06T01:11:27.096Z,80.64
2022-11-06T01:13:56.118Z,80.45
2022-11-06T01:16:23.917Z,81.23
2022-11-06T01:18:51.517Z,82.21
2022-11-06T01:21:23.911Z,82.61
2022-11-06T01:23:58.990Z,82.67
2022-11-06T01:26:37.717Z,79.70
2022-11-06T01:29:07.842Z,79.52
2022-11-06T01:31:34.988Z,81.05
2022-11-06T01:34:03.159Z,81.51
2022-11-06T01:36:30.185Z,80.30
2022-11-06T01:38:59.517Z,79.93
2022-11-06T01:41:47.153Z,78.88
2022-11-06T01:44:35.554Z,78.82
2022-11-06T01:47:04.773Z,79.44
2022-11-06T01:49:36.460Z,80.56
2022-11-06T01:52:07.708Z,80.72
2022-11-06T01:54:36.443Z,80.32
2022-11-06T01:57:04.346Z,79.82
2022-11-06T01:59:34.546Z,80.08
2022-11-06T02:02:01.405Z,79.67
2022-11-06T02:04:35.079Z,78.96
2022-11-06T02:07:02.544Z,80.18
2022-11-06T02:09:31.088Z,80.71
2022-11-06T02:12:02.677Z,80.13
2022-11-06T02:15:14.032Z,79.68
2022-11-06T02:18:10.058Z,78.24
2022-11-06T02:21:04.401Z,79.42
2022-11-06T02:23:37.570Z,78.36
2022-11-06T02:26:33.649Z,80.10
2022-11-06T02:29:15.206Z,79.27
2022-11-06T02:31:44.585Z,78.92
2022-11-06T02:34:17.189Z,78.65
2022-11-06T02:36:51.994Z,78.46
2022-11-06T02:39:22.923Z,78.88
2022-11-06T02:41:52.683Z,78.35
2022-11-06T02:44:23.683Z,78.68
2022-11-06T02:47:02.218Z,78.69
2022-11-06T02:49:52.994Z,78.26
2022-11-06T02:52:29.372Z,77.18
2022-11-06T02:55:04.958Z,77.79
2022-11-06T02:57:37.751Z,78.03
2022-11-06T03:00:06.705Z,79.25
2022-11-06T03:02:41.000Z,80.38
2022-11-06T03:05:14.198Z,81.30
2022-11-06T03:08:23.368Z,80.70
2022-11-06T03:10:57.852Z,82.19
2022-11-06T03:13:30.764Z,80.18
2022-11-06T03:16:05.401Z,78.72
2022-11-06T03:19:25.032Z,78.40
2022-11-06T03:22:02.476Z,78.58
2022-11-06T03:24:35.106Z,77.65
2022-11-06T03:27:15.387Z,77.27
2022-11-06T03:29:49.992Z,78.95
2022-11-06T03:32:22.909Z,79.24
2022-11-06T03:34:58.815Z,78.43
2022-11-06T03:37:33.171Z,78.57
2022-11-06T03:40:03.201Z,78.46
2022-11-06T03:42:32.198Z,78.03
2022-11-06T03:45:06.497Z,78.42
2022-11-06T03:47:45.236Z,78.31
2022-11-06T03:50:24.260Z,77.74
2022-11-06T03:52:55.682Z,78.15
2022-11-06T03:55:26.974Z,78.26
2022-11-06T03:58:05.414Z,78.11
2022-11-06T04:00:35.529Z,78.42
2022-11-06T04:03:07.932Z,78.95
2022-11-06T04:05:40.761Z,79.38
2022-11-06T04:08:28.516Z,79.61
2022-11-06T04:11:19.333Z,79.73
2022-11-06T04:13:57.303Z,79.99
2022-11-06T04:16:26.574Z,79.23
2022-11-06T04:18:53.179Z,79.00
2022-11-06T04:21:37.565Z,78.48
2022-11-06T04:24:35.445Z,78.05
2022-11-06T04:27:26.809Z,78.52
2022-11-06T04:30:03.134Z,78.57
2022-11-06T04:32:54.579Z,78.32
2022-11-06T04:36:11.162Z,78.08
2022-11-06T04:38:43.911Z,78.13
2022-11-06T04:41:16.482Z,78.57
2022-11-06T04:43:49.053Z,79.26
2022-11-06T04:46:21.440Z,79.28
2022-11-06T04:48:49.632Z,79.02
2022-11-06T04:51:21.175Z,77.81
2022-11-06T04:53:49.817Z,77.92
2022-11-06T04:56:35.194Z,78.60
2022-11-06T04:59:05.163Z,78.10
2022-11-06T05:01:32.106Z,77.39
2022-11-06T05:03:59.302Z,77.54
2022-11-06T05:06:50.640Z,77.03
2022-11-06T05:09:43.138Z,78.90
2022-11-06T05:12:09.880Z,79.25
2022-11-06T05:14:36.657Z,79.27
2022-11-06T05:17:03.595Z,79.17
2022-11-06T05:19:30.177Z,78.91
2022-11-06T05:22:15.655Z,78.72
2022-11-06T05:24:42.355Z,78.17
2022-11-06T05:27:09.017Z,78.05
2022-11-06T05:29:36.620Z,77.21
2022-11-06T05:32:03.688Z,76.95
2022-11-06T05:34:30.409Z,77.57
2022-11-06T05:36:57.629Z,78.05
2022-11-06T05:39:24.412Z,78.14
2022-11-06T05:41:51.254Z,78.11
2022-11-06T05:44:17.925Z,78.46
2022-11-06T05:46:49.627Z,78.59
2022-11-06T05:49:18.613Z,79.72
2022-11-06T05:51:45.703Z,79.58
2022-11-06T05:54:12.723Z,79.37
2022-11-06T05:56:39.431Z,79.78
2022-11-06T05:59:06.291Z,79.33
2022-11-06T06:01:33.283Z,79.17
2022-11-06T06:04:00.047Z,79.42
2022-11-06T06:06:27.032Z,79.51
2022-11-06T06:08:53.584Z,79.83
2022-11-06T06:11:20.409Z,79.31
2022-11-06T06:13:48.523Z,79.11
2022-11-06T06:16:16.040Z,78.75
2022-11-06T06:18:42.700Z,78.51
2022-11-06T06:21:09.305Z,78.67
2022-11-06T06:23:35.929Z,80.16
2022-11-06T06:26:02.601Z,79.36
2022-11-06T06:28:29.341Z,79.98
2022-11-06T06:31:01.067Z,79.94
2022-11-06T06:33:28.199Z,80.07
2022-11-06T06:35:54.822Z,80.15
2022-11-06T06:38:21.625Z,81.39
2022-11-06T06:40:48.505Z,82.06
2022-11-06T06:43:15.117Z,83.87
2022-11-06T06:45:49.915Z,83.59
2022-11-06T06:48:16.687Z,83.15
2022-11-06T06:50:43.525Z,81.61
2022-11-06T06:53:10.164Z,81.57
2022-11-06T06:55:36.895Z,80.43
2022-11-06T06:58:03.931Z,78.67
2022-11-06T07:00:30.697Z,78.25
2022-11-06T07:02:59.340Z,79.64
2022-11-06T07:05:26.082Z,79.67
2022-11-06T07:07:52.761Z,79.33
2022-11-06T07:10:19.695Z,79.10
2022-11-06T07:12:46.432Z,78.05
2022-11-06T07:15:14.465Z,76.72
2022-11-06T07:17:41.771Z,76.51
2022-11-06T07:20:09.433Z,75.94
2022-11-06T07:22:37.567Z,74.63
2022-11-06T07:25:05.547Z,85.68
2022-11-06T07:27:32.364Z,93.50
2022-11-06T07:30:00.588Z,80.95
2022-11-06T07:32:27.977Z,73.98
2022-11-06T07:34:55.331Z,71.03
2022-11-06T07:37:22.214Z,69.17
2022-11-06T07:39:48.889Z,65.50
2022-11-06T07:42:15.576Z,65.43
2022-11-06T07:44:56.197Z,66.12
2022-11-06T07:47:23.166Z,64.90
2022-11-06T07:49:51.243Z,64.54
2022-11-06T07:52:18.168Z,64.79
2022-11-06T07:54:45.077Z,64.03
2022-11-06T07:57:11.669Z,64.15
2022-11-06T07:59:38.381Z,64.17
2022-11-06T08:02:05.291Z,64.00
2022-11-06T08:04:32.214Z,62.26
2022-11-06T08:06:59.929Z,63.53
2022-11-06T08:09:26.780Z,62.88
2022-11-06T08:11:53.350Z,63.21
2022-11-06T08:14:20.018Z,62.96
2022-11-06T08:16:48.203Z,63.02
2022-11-06T08:19:15.831Z,61.82
2022-11-06T08:21:42.501Z,62.26
2022-11-06T08:24:09.255Z,61.48
2022-11-06T08:26:36.001Z,60.50
2022-11-06T08:29:02.719Z,60.80
2022-11-06T08:31:29.995Z,60.68
2022-11-06T08:33:56.736Z,60.62
2022-11-06T08:36:24.516Z,60.04
2022-11-06T08:38:51.180Z,60.17
2022-11-06T08:41:20.053Z,59.58
2022-11-06T08:43:51.536Z,60.40
2022-11-06T08:46:18.360Z,60.83
2022-11-06T08:48:45.029Z,60.73
2022-11-06T08:51:11.636Z,61.07
2022-11-06T08:53:42.327Z,61.76
2022-11-06T08:56:09.012Z,61.56
2022-11-06T08:58:35.915Z,61.68
2022-11-06T09:01:02.977Z,62.97
2022-11-06T09:03:29.736Z,62.71
2022-11-06T09:05:56.274Z,63.44
2022-11-06T09:08:25.032Z,62.35
2022-11-06T09:10:57.270Z,62.69
2022-11-06T09:13:25.353Z,64.51
2022-11-06T09:15:51.953Z,64.90
2022-11-06T09:18:18.657Z,65.05
2022-11-06T09:20:45.479Z,64.44
2022-11-06T09:23:12.894Z,64.09
2022-11-06T09:25:41.780Z,64.70
2022-11-06T09:28:08.511Z,65.08
2022-11-06T09:30:35.165Z,64.72
2022-11-06T09:33:02.890Z,64.55
2022-11-06T09:35:34.038Z,64.32
2022-11-06T09:38:04.854Z,63.91
2022-11-06T09:40:38.152Z,62.70
2022-11-06T09:47:15.297Z,63.55
2022-11-06T09:49:48.062Z,62.88
2022-11-06T09:56:17.729Z,61.50
2022-11-06T09:58:44.909Z,61.21
2022-11-06T10:01:25.992Z,61.24
2022-11-06T10:04:02.319Z,60.39
2022-11-06T10:06:35.125Z,59.36
2022-11-06T10:09:06.690Z,59.27
2022-11-06T10:11:57.867Z,58.19
2022-11-06T10:14:31.866Z,58.04
2022-11-06T10:17:30.784Z,57.59
2022-11-06T10:20:20.929Z,57.15
2022-11-06T10:23:06.516Z,56.62
2022-11-06T10:26:13.284Z,57.07
2022-11-06T10:29:16.481Z,57.05
2022-11-06T10:31:48.931Z,55.80
2022-11-06T10:34:17.844Z,56.73
2022-11-06T10:36:51.115Z,56.81
2022-11-06T10:39:27.320Z,55.97
2022-11-06T10:42:02.297Z,55.85
2022-11-06T10:44:46.444Z,55.32
2022-11-06T10:47:37.408Z,55.83
2022-11-06T10:50:11.441Z,55.16
2022-11-06T10:52:46.221Z,56.22
2022-11-06T10:55:39.739Z,54.62
2022-11-06T10:58:09.884Z,54.96
2022-11-06T11:00:37.147Z,55.38
2022-11-06T11:03:13.731Z,54.84
2022-11-06T11:05:45.059Z,55.20
2022-11-06T11:08:30.943Z,55.78
2022-11-06T11:11:15.639Z,56.65
2022-11-06T11:14:01.482Z,55.50
2022-11-06T11:16:32.429Z,55.82
2022-11-06T11:19:39.009Z,56.78
2022-11-06T11:22:18.954Z,57.66
2022-11-06T11:25:07.772Z,57.18
2022-11-06T11:27:44.363Z,57.22
2022-11-06T11:30:23.357Z,57.38
2022-11-06T11:32:54.228Z,57.37
2022-11-06T11:35:27.698Z,56.50
2022-11-06T11:38:06.676Z,57.22
2022-11-06T11:40:38.333Z,57.90
2022-11-06T11:43:28.598Z,57.80
2022-11-06T11:46:10.597Z,57.31
2022-11-06T11:48:55.790Z,57.79
2022-11-06T11:51:30.083Z,58.92
2022-11-06T11:54:13.938Z,57.82
2022-11-06T11:57:05.812Z,57.29
2022-11-06T11:59:41.531Z,58.15
2022-11-06T12:02:34.658Z,56.62
2022-11-06T12:05:07.541Z,57.58
2022-11-06T12:07:45.935Z,58.12
2022-11-06T12:10:37.929Z,57.24
2022-11-06T12:13:07.312Z,57.08
2022-11-06T12:15:56.996Z,57.23
2022-11-06T12:18:28.096Z,57.84
2022-11-06T12:21:04.112Z,57.78
2022-11-06T12:23:53.095Z,57.92
2022-11-06T12:26:22.695Z,57.11
2022-11-06T12:28:54.147Z,57.35
2022-11-06T12:31:35.493Z,57.95
2022-11-06T12:34:08.444Z,57.85
2022-11-06T12:36:45.670Z,57.55
2022-11-06T12:39:19.930Z,57.94
2022-11-06T12:41:51.140Z,57.41
2022-11-06T12:44:18.190Z,58.03
2022-11-06T12:47:14.558Z,57.52
2022-11-06T12:49:54.530Z,57.71
2022-11-06T12:52:38.503Z,57.94
2022-11-06T12:55:26.701Z,57.80
2022-11-06T12:58:29.031Z,57.99
2022-11-06T13:01:20.614Z,57.56
2022-11-06T13:04:24.935Z,57.67
2022-11-06T13:07:19.722Z,57.32
2022-11-06T13:10:04.983Z,56.82
2022-11-06T13:12:48.055Z,57.02
2022-11-06T13:15:37.221Z,57.23
2022-11-06T13:18:19.235Z,56.94
2022-11-06T13:21:04.483Z,57.16
2022-11-06T13:23:40.223Z,57.71
2022-11-06T13:26:13.476Z,57.32
2022-11-06T13:28:45.645Z,57.29
2022-11-06T13:31:15.194Z,57.38
2022-11-06T13:33:44.539Z,57.64
2022-11-06T13:36:11.681Z,57.55
2022-11-06T13:38:43.279Z,57.57
2022-11-06T13:41:23.784Z,57.49
2022-11-06T13:44:06.543Z,57.26
2022-11-06T13:47:12.816Z,58.25
2022-11-06T13:49:59.259Z,58.04
2022-11-06T13:52:53.704Z,58.58
2022-11-06T13:55:31.273Z,58.54
2022-11-06T13:58:39.213Z,58.97
2022-11-06T14:01:40.119Z,59.16
2022-11-06T14:04:54.129Z,58.44
2022-11-06T14:07:22.841Z,58.71
2022-11-06T14:09:49.644Z,59.05
2022-11-06T14:12:20.724Z,59.49
2022-11-06T14:14:48.514Z,59.21
2022-11-06T14:17:18.096Z,57.63
2022-11-06T14:19:51.354Z,58.20
2022-11-06T14:22:40.335Z,58.06
2022-11-06T14:25:37.269Z,59.28
2022-11-06T14:32:19.877Z,59.49
2022-11-06T14:34:46.643Z,59.48
2022-11-06T14:37:19.708Z,59.48
2022-11-06T14:39:52.980Z,60.36
2022-11-06T14:42:31.195Z,59.64
2022-11-06T14:45:08.962Z,59.43
2022-11-06T14:47:54.512Z,60.13
2022-11-06T14:50:38.166Z,59.81
2022-11-06T14:53:29.846Z,59.74
2022-11-06T14:56:07.482Z,60.98
2022-11-06T14:59:01.272Z,60.53
2022-11-06T15:01:34.198Z,60.68
2022-11-06T15:12:27.379Z,61.32
2022-11-06T15:14:56.472Z,60.04
2022-11-06T15:17:25.355Z,60.29
2022-11-06T15:20:05.535Z,61.25
2022-11-06T15:22:41.675Z,59.93
2022-11-06T15:25:17.196Z,60.04
2022-11-06T15:27:48.173Z,60.18
2022-11-06T15:30:18.283Z,60.83
2022-11-06T15:32:54.232Z,60.68
2022-11-06T15:35:33.071Z,60.74
2022-11-06T15:38:16.032Z,61.40
2022-11-06T15:40:44.584Z,60.99
2022-11-06T15:43:19.429Z,61.07
2022-11-06T15:45:45.970Z,61.73
2022-11-06T15:48:21.910Z,61.58
2022-11-06T15:50:49.175Z,61.78
2022-11-06T15:53:21.515Z,61.81
2022-11-06T15:56:01.406Z,61.99
2022-11-06T15:58:44.595Z,60.81
2022-11-06T16:01:12.135Z,61.60
2022-11-06T16:03:53.504Z,61.32
2022-11-06T16:06:20.968Z,61.24
2022-11-06T16:08:50.385Z,61.51
2022-11-06T16:11:19.998Z,61.57
2022-11-06T16:13:47.878Z,61.56
2022-11-06T16:16:40.926Z,61.69
2022-11-06T16:19:21.681Z,61.55
2022-11-06T16:22:05.738Z,61.15
2022-11-06T16:24:40.044Z,60.87
2022-11-06T16:27:07.601Z,60.84
2022-11-06T16:29:35.222Z,61.51
2022-11-06T16:32:08.235Z,60.07
2022-11-06T16:34:47.000Z,60.69
2022-11-06T16:37:37.793Z,61.09
2022-11-06T16:40:06.358Z,61.82
2022-11-06T16:42:36.586Z,63.14
2022-11-06T16:45:03.235Z,63.53
2022-11-06T16:48:15.860Z,63.14
2022-11-06T16:50:55.671Z,63.18
2022-11-06T16:53:25.818Z,63.19
2022-11-06T16:56:01.758Z,63.96
2022-11-06T16:58:32.521Z,63.96
2022-11-06T17:01:05.294Z,63.11
2022-11-06T17:03:52.943Z,63.41
2022-11-06T17:06:51.636Z,62.84
2022-11-06T17:09:33.869Z,63.21
2022-11-06T17:12:10.625Z,64.07
2022-11-06T17:14:37.052Z,65.47
2022-11-06T17:17:03.702Z,71.94
2022-11-06T17:19:30.522Z,64.90
2022-11-06T17:21:57.894Z,63.22
2022-11-06T17:24:36.614Z,64.20
2022-11-06T17:27:04.031Z,64.89
2022-11-06T17:29:30.674Z,65.52
2022-11-06T17:31:57.075Z,65.17
2022-11-06T17:34:23.481Z,66.42
2022-11-06T17:36:49.986Z,66.41
2022-11-06T17:39:16.455Z,62.72
2022-11-06T17:41:43.109Z,60.82
2022-11-06T17:44:12.216Z,59.86
2022-11-06T17:46:44.144Z,59.84
2022-11-06T17:49:17.127Z,58.98
2022-11-06T17:51:50.596Z,58.76
2022-11-06T17:54:21.813Z,58.85
2022-11-06T17:56:49.784Z,58.96
2022-11-06T17:59:16.239Z,59.47
2022-11-06T18:01:43.117Z,59.50
2022-11-06T18:04:10.382Z,59.53
2022-11-06T18:06:37.043Z,60.30
2022-11-06T18:09:06.364Z,59.95
2022-11-06T18:11:33.244Z,60.41
2022-11-06T18:13:59.873Z,60.75
2022-11-06T18:16:28.939Z,60.52
2022-11-06T18:18:56.058Z,61.03
2022-11-06T18:21:23.004Z,61.06
2022-11-06T18:23:49.758Z,61.25
2022-11-06T18:26:16.543Z,61.39
2022-11-06T18:28:42.979Z,61.63
2022-11-06T18:31:09.463Z,61.52
2022-11-06T18:33:35.911Z,61.45
2022-11-06T18:36:04.876Z,61.95
2022-11-06T18:38:31.948Z,61.71
2022-11-06T18:40:58.790Z,62.54
2022-11-06T18:43:25.470Z,61.76
2022-11-06T18:45:52.076Z,61.94
2022-11-06T18:48:21.621Z,62.80
2022-11-06T18:50:48.633Z,62.77
2022-11-06T18:53:15.344Z,62.90
2022-11-06T18:55:45.972Z,62.75
2022-11-06T18:58:12.983Z,63.41
2022-11-06T19:00:39.642Z,63.60
2022-11-06T19:03:06.537Z,63.99
2022-11-06T19:05:34.167Z,64.10
2022-11-06T19:08:01.373Z,64.18
2022-11-06T19:10:29.383Z,64.21
2022-11-06T19:12:59.283Z,64.40
2022-11-06T19:15:26.508Z,64.85
2022-11-06T19:17:54.655Z,65.19
2022-11-06T19:20:21.739Z,64.98
2022-11-06T19:22:52.486Z,65.27
2022-11-06T19:25:20.204Z,64.85
2022-11-06T19:27:47.392Z,64.62
2022-11-06T19:30:14.738Z,64.51
2022-11-06T19:32:42.091Z,64.63
2022-11-06T19:35:09.066Z,64.91
2022-11-06T19:37:37.190Z,65.02
2022-11-06T19:40:06.073Z,64.38
2022-11-06T19:42:33.098Z,64.51
2022-11-06T19:45:00.236Z,64.27
2022-11-06T19:47:28.033Z,64.25
2022-11-06T19:49:54.538Z,64.35
2022-11-06T19:52:42.159Z,63.85
2022-11-06T19:55:25.836Z,64.44
2022-11-06T19:57:54.633Z,64.22
2022-11-06T20:00:21.114Z,63.86
2022-11-06T20:02:50.974Z,63.70
2022-11-06T20:05:18.186Z,63.18
2022-11-06T20:07:44.748Z,63.59
2022-11-06T20:10:11.426Z,63.58
2022-11-06T20:12:38.069Z,63.32
2022-11-06T20:15:05.218Z,63.00
2022-11-06T20:17:31.654Z,63.41
2022-11-06T20:19:58.207Z,63.90
2022-11-06T20:22:25.319Z,64.52
2022-11-06T20:24:51.772Z,64.86
2022-11-06T20:27:18.213Z,64.49
2022-11-06T20:29:45.046Z,65.75
2022-11-06T20:32:13.613Z,66.05
2022-11-06T20:34:42.774Z,67.21
2022-11-06T20:37:09.177Z,69.93
2022-11-06T20:39:35.876Z,72.29
2022-11-06T20:42:02.321Z,73.96
2022-11-06T20:44:28.807Z,75.25
2022-11-06T20:46:55.319Z,75.40
2022-11-06T20:49:21.851Z,74.96
2022-11-06T20:52:12.658Z,75.18
2022-11-06T20:54:35.043Z,76.39
2022-11-06T20:57:01.964Z,76.01
2022-11-06T20:59:28.412Z,76.42
2022-11-06T21:01:54.939Z,76.44
2022-11-06T21:04:21.521Z,76.73
2022-11-06T21:06:48.016Z,76.38
2022-11-06T21:09:16.542Z,77.13
2022-11-06T21:11:42.995Z,76.59
2022-11-06T21:14:09.921Z,77.22
2022-11-06T21:16:37.281Z,77.22
2022-11-06T21:19:04.743Z,77.20
2022-11-06T21:21:34.397Z,77.83
2022-11-06T21:24:02.131Z,77.29
2022-11-06T21:26:34.014Z,77.34
2022-11-06T21:29:02.397Z,77.51
2022-11-06T21:31:30.744Z,77.94
2022-11-06T21:34:00.001Z,78.00
2022-11-06T21:36:31.935Z,77.87
2022-11-06T21:39:00.948Z,77.77
2022-11-06T21:41:29.247Z,78.57
2022-11-06T21:43:56.360Z,78.32
2022-11-06T21:46:22.808Z,78.98
2022-11-06T21:48:50.292Z,79.37
2022-11-06T21:51:22.881Z,78.79
2022-11-06T21:54:08.891Z,79.29
2022-11-06T21:56:36.017Z,79.02
2022-11-06T21:59:04.775Z,79.64
2022-11-06T22:01:32.446Z,79.23
2022-11-06T22:04:00.014Z,79.86
2022-11-06T22:06:27.932Z,79.47
2022-11-06T22:08:56.608Z,79.88
2022-11-06T22:11:26.173Z,80.22
2022-11-06T22:13:53.772Z,81.02
2022-11-06T22:16:32.887Z,80.76
2022-11-06T22:18:59.667Z,80.97
2022-11-06T22:21:28.485Z,82.06
2022-11-06T22:23:55.687Z,82.06
2022-11-06T22:26:27.667Z,82.75
2022-11-06T22:28:56.037Z,82.91
2022-11-06T22:31:23.747Z,83.22
2022-11-06T22:33:53.970Z,83.37
2022-11-06T22:36:21.776Z,83.50
2022-11-06T22:38:48.634Z,84.33
2022-11-06T22:41:18.005Z,84.25
2022-11-06T22:43:44.940Z,84.15
2022-11-06T22:46:17.806Z,85.33
2022-11-06T22:48:45.234Z,85.36
2022-11-06T22:51:14.518Z,84.46
2022-11-06T22:53:41.206Z,84.91
2022-11-06T22:56:08.203Z,85.30
2022-11-06T22:58:35.188Z,85.30
2022-11-06T23:01:01.629Z,84.61
2022-11-06T23:03:29.478Z,85.18
2022-11-06T23:05:58.103Z,85.39
2022-11-06T23:08:26.228Z,84.93
2022-11-06T23:10:53.904Z,85.67
2022-11-06T23:13:20.373Z,85.53
2022-11-06T23:15:47.197Z,85.55
2022-11-06T23:18:13.848Z,85.38
2022-11-06T23:20:40.243Z,85.23
2022-11-06T23:23:07.015Z,84.67
2022-11-06T23:25:33.445Z,85.66
2022-11-06T23:28:01.458Z,85.30
2022-11-06T23:30:31.721Z,85.42
2022-11-06T23:32:58.824Z,85.02
2022-11-06T23:35:31.082Z,84.99
2022-11-06T23:37:59.217Z,84.75
2022-11-06T23:40:26.238Z,84.92
2022-11-06T23:42:54.689Z,85.37
2022-11-06T23:45:39.958Z,85.92
2022-11-06T23:48:16.393Z,86.01
2022-11-06T23:50:47.039Z,85.76
2022-11-06T23:53:17.205Z,85.74
2022-11-06T23:55:44.034Z,86.21
2022-11-06T23:58:10.555Z,87.06
